Time;durP1;ratioP1;P1;durP2;ratioP2;P2;SDS_P1;SDS_P2;PMS_P1;PMS_P2;Temp;Humidity;BMP_temperature;BMP_pressure;BME280_temperature;BME280_humidity;BME280_pressure;Samples;Min_cycle;Max_cycle;Signal;HPM_P1;HPM_P2
2023/12/28 00:00:09;;;;;;;;;;;;;;;2.97;100.00;96583.13;5063448;28;19961;-84
2023/12/28 00:02:35;;;;;;;;;;;;;;;2.96;100.00;96581.50;5063664;28;19963;-82
2023/12/28 00:05:01;;;;;;;;;;;;;;;2.97;100.00;96560.63;5065893;28;19990;-82
2023/12/28 00:07:27;;;;;;;;;;;;;;;2.98;100.00;96584.75;5067134;28;19986;-83
2023/12/28 00:09:53;;;;;;;;;;;;;;;2.96;100.00;96576.31;5067140;28;19961;-83
2023/12/28 00:12:19;;;;;;;;;;;;;;;2.92;100.00;96565.50;5067203;28;19960;-72
2023/12/28 00:14:45;;;;;;;;;;;;;;;2.90;100.00;96579.56;5067100;28;20247;-77
2023/12/28 00:17:11;;;;;;;;;;;;;;;2.90;100.00;96571.81;5066999;28;19956;-76
2023/12/28 00:19:36;;;;;;;;;;;;;;;2.90;100.00;96571.81;5066779;28;19976;-76
2023/12/28 00:22:02;;;;;;;;;;;;;;;2.90;100.00;96561.44;5066894;28;19957;-77
2023/12/28 00:24:28;;;;;;;;;;;;;;;2.90;100.00;96575.22;5066545;28;20254;-77
2023/12/28 00:26:54;;;;;;;;;;;;;;;2.94;100.00;96592.06;5067013;28;20015;-77
2023/12/28 00:29:20;;;;;;;;;;;;;;;2.96;100.00;96579.75;5066888;28;20070;-82
2023/12/28 00:31:45;;;;;;;;;;;;;;;2.99;100.00;96588.97;5066552;28;20241;-68
2023/12/28 00:34:11;;;;;;;;;;;;;;;3.01;100.00;96599.97;5066515;28;19963;-76
2023/12/28 00:36:37;;;;;;;;;;;;;;;3.02;100.00;96586.84;5066673;28;20001;-76
2023/12/28 00:39:03;;;;;;;;;;;;;;;3.05;100.00;96583.13;5066634;28;19957;-75
2023/12/28 00:41:29;;;;;;;;;;;;;;;3.07;100.00;96590.69;5066473;28;19962;-75
2023/12/28 00:43:55;;;;;;;;;;;;;;;3.09;100.00;96583.56;5066296;28;19967;-76
2023/12/28 00:46:20;;;;;;;;;;;;;;;3.09;100.00;96578.38;5066515;28;19959;-75
2023/12/28 00:48:46;;;;;;;;;;;;;;;3.08;100.00;96569.00;5065955;28;20127;-79
2023/12/28 00:51:12;;;;;;;;;;;;;;;3.07;100.00;96563.03;5048274;28;19957;-77
2023/12/28 00:53:38;;;;;;;;;;;;;;;3.11;100.00;96541.00;5066199;28;19955;-76
2023/12/28 00:56:04;;;;;;;;;;;;;;;3.18;100.00;96546.31;5066008;28;19971;-77
2023/12/28 00:58:30;;;;;;;;;;;;;;;3.23;100.00;96554.38;5065985;28;19982;-77
2023/12/28 01:00:56;;;;;;;;;;;;;;;3.23;100.00;96552.59;5066338;28;19962;-77
2023/12/28 01:03:23;;;;;;;;;;;;;;;3.24;100.00;96551.63;5065963;28;19955;-76
2023/12/28 01:05:50;;;;;;;;;;;;;;;3.26;100.00;96543.69;5065969;28;19961;-69
2023/12/28 01:08:17;;;;;;;;;;;;;;;3.22;100.00;96540.59;5065955;28;19956;-72
2023/12/28 01:10:43;;;;;;;;;;;;;;;3.22;100.00;96553.56;5066129;28;19968;-68
2023/12/28 01:13:09;;;;;;;;;;;;;;;3.22;100.00;96558.75;5066025;28;19950;-69
2023/12/28 01:15:35;;;;;;;;;;;;;;;3.23;100.00;96562.13;5065838;28;19957;-69
2023/12/28 01:18:00;;;;;;;;;;;;;;;3.22;100.00;96578.69;5065485;28;20256;-69
2023/12/28 01:20:26;;;;;;;;;;;;;;;3.20;100.00;96570.25;5065999;28;19959;-68
2023/12/28 01:22:52;;;;;;;;;;;;;;;3.19;100.00;96573.81;5065283;28;20294;-69
2023/12/28 01:25:18;;;;;;;;;;;;;;;3.17;100.00;96589.56;5065404;28;20018;-72
2023/12/28 01:27:44;;;;;;;;;;;;;;;3.17;100.00;96580.94;5065389;28;19959;-79
2023/12/28 01:30:10;;;;;;;;;;;;;;;3.16;100.00;96574.16;5065364;28;20155;-80
2023/12/28 01:32:36;;;;;;;;;;;;;;;3.14;100.00;96582.09;5065804;28;19964;-80
2023/12/28 01:35:01;;;;;;;;;;;;;;;3.11;100.00;96579.03;5065390;28;19966;-80
2023/12/28 01:37:30;;;;;;;;;;;;;;;3.07;100.00;96581.16;5065431;28;19950;-80
2023/12/28 01:39:56;;;;;;;;;;;;;;;3.06;100.00;96587.31;5065404;28;19939;-80
2023/12/28 01:42:22;;;;;;;;;;;;;;;3.02;100.00;96601.56;5065447;28;19958;-80
2023/12/28 01:44:48;;;;;;;;;;;;;;;3.01;100.00;96603.34;5065514;28;19977;-71
2023/12/28 01:47:14;;;;;;;;;;;;;;;3.02;100.00;96612.75;5065350;28;19963;-72
2023/12/28 01:49:40;;;;;;;;;;;;;;;3.04;100.00;96621.19;5065286;28;20031;-72
2023/12/28 01:52:06;;;;;;;;;;;;;;;3.07;100.00;96608.84;5065241;28;20290;-72
2023/12/28 01:54:33;;;;;;;;;;;;;;;3.09;100.00;96619.84;5065164;28;19963;-72
2023/12/28 01:57:00;;;;;;;;;;;;;;;3.10;100.00;96618.88;5064815;28;19950;-72
2023/12/28 01:59:26;;;;;;;;;;;;;;;3.09;100.00;96612.91;5064852;28;19958;-72
2023/12/28 02:01:52;;;;;;;;;;;;;;;3.08;100.00;96626.81;5065146;28;19964;-71
2023/12/28 02:04:22;;;;;;;;;;;;;;;3.07;100.00;96629.56;5064885;28;19960;-82
2023/12/28 02:06:48;;;;;;;;;;;;;;;3.03;100.00;96616.97;5065023;28;19964;-82
2023/12/28 02:09:14;;;;;;;;;;;;;;;3.00;100.00;96632.84;5065068;28;19966;-82
2023/12/28 02:11:40;;;;;;;;;;;;;;;2.99;100.00;96633.00;5064409;28;19956;-82
2023/12/28 02:14:06;;;;;;;;;;;;;;;2.98;100.00;96646.91;5064853;28;20016;-81
2023/12/28 02:16:33;;;;;;;;;;;;;;;2.99;100.00;96631.22;5065053;28;19954;-82
2023/12/28 02:19:02;;;;;;;;;;;;;;;3.00;100.00;96638.03;5064848;28;19958;-82
2023/12/28 02:21:28;;;;;;;;;;;;;;;3.01;100.00;96633.66;5065025;28;19985;-72
2023/12/28 02:23:53;;;;;;;;;;;;;;;3.03;100.00;96636.88;5064333;28;20232;-77
2023/12/28 02:26:19;;;;;;;;;;;;;;;3.06;100.00;96636.53;5063941;28;19960;-77
2023/12/28 02:28:45;;;;;;;;;;;;;;;3.07;100.00;96629.56;5064372;28;20004;-77
2023/12/28 02:31:18;;;;;;;;;;;;;;;3.05;100.00;96625.38;5064367;28;20067;-78
2023/12/28 02:33:48;;;;;;;;;;;;;;;3.04;100.00;96644.50;5064381;28;19958;-76
2023/12/28 02:36:16;;;;;;;;;;;;;;;3.06;100.00;96626.16;5064657;28;19959;-77
2023/12/28 02:38:43;;;;;;;;;;;;;;;3.06;100.00;96618.41;5064511;28;19951;-71
2023/12/28 02:41:09;;;;;;;;;;;;;;;3.10;100.00;96611.91;5064406;28;19979;-72
2023/12/28 02:43:35;;;;;;;;;;;;;;;3.12;100.00;96622.13;5063965;28;19954;-72
2023/12/28 02:46:01;;;;;;;;;;;;;;;3.10;100.00;96624.06;5064419;28;20245;-71
2023/12/28 02:48:27;;;;;;;;;;;;;;;3.10;100.00;96631.84;5064242;28;19982;-71
2023/12/28 02:50:52;;;;;;;;;;;;;;;3.09;100.00;96607.72;5064026;28;19963;-72
2023/12/28 02:53:18;;;;;;;;;;;;;;;3.07;100.00;96645.09;5064350;28;19993;-71
2023/12/28 02:55:44;;;;;;;;;;;;;;;3.06;100.00;96623.56;5064024;28;19958;-71
2023/12/28 02:58:10;;;;;;;;;;;;;;;3.08;100.00;96631.19;5064087;28;19960;-81
2023/12/28 03:00:36;;;;;;;;;;;;;;;3.08;100.00;96613.06;5064105;28;20011;-72
2023/12/28 03:03:01;;;;;;;;;;;;;;;3.14;100.00;96615.00;5064147;28;19961;-71
2023/12/28 03:05:27;;;;;;;;;;;;;;;3.15;100.00;96621.78;5064156;28;19962;-71
2023/12/28 03:07:55;;;;;;;;;;;;;;;3.15;100.00;96620.00;5064196;28;19957;-71
2023/12/28 03:10:21;;;;;;;;;;;;;;;3.16;100.00;96611.25;5064185;28;19959;-72
2023/12/28 03:12:47;;;;;;;;;;;;;;;3.21;100.00;96605.56;5063642;28;19946;-71
2023/12/28 03:15:14;;;;;;;;;;;;;;;3.35;100.00;96611.84;5064199;28;19967;-72
2023/12/28 03:17:40;;;;;;;;;;;;;;;3.47;100.00;96594.94;5063605;28;19958;-71
2023/12/28 03:20:06;;;;;;;;;;;;;;;3.57;97.68;96579.16;5064139;28;19967;-80
2023/12/28 03:22:31;;;;;;;;;;;;;;;3.65;100.00;96594.66;5063637;28;19978;-80
2023/12/28 03:24:57;;;;;;;;;;;;;;;3.65;96.87;96582.53;5063801;28;19960;-80
2023/12/28 03:27:23;;;;;;;;;;;;;;;3.68;100.00;96601.31;5063428;28;19961;-79
2023/12/28 03:29:49;;;;;;;;;;;;;;;3.66;100.00;96607.47;5064115;28;19974;-80
2023/12/28 03:32:15;;;;;;;;;;;;;;;3.67;100.00;96605.69;5064041;28;19960;-79
2023/12/28 03:34:41;;;;;;;;;;;;;;;3.68;100.00;96602.13;5064116;28;19956;-69
2023/12/28 03:37:07;;;;;;;;;;;;;;;3.67;100.00;96626.44;5064200;28;19963;-82
2023/12/28 03:39:34;;;;;;;;;;;;;;;3.68;100.00;96606.50;5066166;28;19960;-83
2023/12/28 03:41:59;;;;;;;;;;;;;;;3.70;100.00;96620.13;5067994;28;19970;-82
2023/12/28 03:44:25;;;;;;;;;;;;;;;3.70;100.00;96612.34;5067899;28;19945;-82
2023/12/28 03:46:51;;;;;;;;;;;;;;;3.68;100.00;96622.88;5068023;28;19970;-82
2023/12/28 03:49:17;;;;;;;;;;;;;;;3.68;100.00;96611.69;5067333;28;20022;-82
2023/12/28 03:51:43;;;;;;;;;;;;;;;3.63;100.00;96618.19;5067280;28;19962;-75
2023/12/28 03:54:09;;;;;;;;;;;;;;;3.62;100.00;96595.03;5067290;28;19960;-69
2023/12/28 03:56:35;;;;;;;;;;;;;;;3.59;100.00;96614.34;5066933;28;20245;-76
2023/12/28 03:59:01;;;;;;;;;;;;;;;3.58;100.00;96607.50;5067607;28;19959;-76
2023/12/28 04:01:27;;;;;;;;;;;;;;;3.63;99.26;96576.72;5067153;28;19971;-76
2023/12/28 04:03:53;;;;;;;;;;;;;;;3.70;100.00;96612.34;5067380;28;19950;-76
2023/12/28 04:06:19;;;;;;;;;;;;;;;3.73;100.00;96581.66;5067288;28;20135;-76
2023/12/28 04:08:44;;;;;;;;;;;;;;;3.81;100.00;96596.38;5067262;28;19965;-76
2023/12/28 04:11:10;;;;;;;;;;;;;;;3.89;96.68;96560.00;5067228;28;19962;-69
2023/12/28 04:13:36;;;;;;;;;;;;;;;4.09;100.00;96594.06;5066716;28;19954;-69
2023/12/28 04:16:03;;;;;;;;;;;;;;;4.17;97.51;96578.44;5066776;28;19959;-69
2023/12/28 04:18:29;;;;;;;;;;;;;;;4.24;97.11;96579.38;5067387;28;20264;-68
2023/12/28 04:20:55;;;;;;;;;;;;;;;4.30;96.30;96577.06;5067204;28;19957;-69
2023/12/28 04:23:21;;;;;;;;;;;;;;;4.38;96.39;96569.19;5066595;28;20000;-69
2023/12/28 04:25:47;;;;;;;;;;;;;;;4.41;99.74;96576.63;5066989;28;19954;-69
2023/12/28 04:28:13;;;;;;;;;;;;;;;4.39;98.74;96574.22;5066686;28;19982;-81
2023/12/28 04:30:39;;;;;;;;;;;;;;;4.39;95.93;96565.59;5066664;28;19956;-81
2023/12/28 04:33:04;;;;;;;;;;;;;;;4.38;99.97;96584.78;5067240;28;19957;-69
2023/12/28 04:35:30;;;;;;;;;;;;;;;4.36;97.06;96568.56;5066363;28;20145;-69
2023/12/28 04:37:56;;;;;;;;;;;;;;;4.36;99.15;96584.16;5066772;28;20005;-69
2023/12/28 04:40:22;;;;;;;;;;;;;;;4.37;100.00;96575.38;5066699;28;19962;-71
2023/12/28 04:42:48;;;;;;;;;;;;;;;4.40;97.06;96557.66;5066092;28;19964;-69
2023/12/28 04:45:14;;;;;;;;;;;;;;;4.48;97.84;96559.38;5066152;28;20170;-69
2023/12/28 04:47:40;;;;;;;;;;;;;;;4.54;99.48;96565.66;5066111;28;19953;-71
2023/12/28 04:50:06;;;;;;;;;;;;;;;4.57;92.85;96534.13;5065723;28;19962;-81
2023/12/28 04:52:32;;;;;;;;;;;;;;;4.64;95.68;96548.84;5066211;28;19969;-82
2023/12/28 04:54:58;;;;;;;;;;;;;;;4.66;96.83;96546.88;5066144;28;20042;-81
2023/12/28 04:57:25;;;;;;;;;;;;;;;4.65;96.25;96555.63;5066097;28;20056;-81
2023/12/28 04:59:51;;;;;;;;;;;;;;;4.63;98.01;96564.59;5066351;28;20262;-81
2023/12/28 05:02:17;;;;;;;;;;;;;;;4.61;99.98;96582.94;5066228;28;19971;-81
2023/12/28 05:04:43;;;;;;;;;;;;;;;4.59;98.13;96565.94;5065678;28;19957;-82
2023/12/28 05:07:09;;;;;;;;;;;;;;;4.58;100.00;96588.50;5066294;28;19997;-71
2023/12/28 05:09:35;;;;;;;;;;;;;;;4.55;100.00;96601.03;5066146;28;19954;-71
2023/12/28 05:12:00;;;;;;;;;;;;;;;4.55;100.00;96595.84;5066021;28;19958;-71
2023/12/28 05:14:26;;;;;;;;;;;;;;;4.55;100.00;96595.84;5065563;28;19941;-71
2023/12/28 05:16:52;;;;;;;;;;;;;;;4.57;100.00;96606.84;5064720;28;19974;-71
2023/12/28 05:19:18;;;;;;;;;;;;;;;4.56;100.00;96610.44;5065825;28;19987;-71
2023/12/28 05:21:44;;;;;;;;;;;;;;;4.57;100.00;96622.44;5066027;28;20022;-71
2023/12/28 05:24:10;;;;;;;;;;;;;;;4.57;100.00;96623.25;5065873;28;19957;-83
2023/12/28 05:26:35;;;;;;;;;;;;;;;4.56;100.00;96600.84;5065592;28;19965;-73
2023/12/28 05:29:01;;;;;;;;;;;;;;;4.58;100.00;96630.06;5064772;28;19960;-76
2023/12/28 05:31:27;;;;;;;;;;;;;;;4.58;100.00;96630.06;5065501;28;20022;-76
2023/12/28 05:33:53;;;;;;;;;;;;;;;4.59;100.00;96634.25;5065522;28;19964;-76
2023/12/28 05:36:19;;;;;;;;;;;;;;;4.58;100.00;96596.28;5065535;28;19965;-76
2023/12/28 05:38:45;;;;;;;;;;;;;;;4.61;100.00;96614.13;5065606;28;19963;-76
2023/12/28 05:41:11;;;;;;;;;;;;;;;4.62;100.00;96613.16;5065714;28;19961;-76
2023/12/28 05:43:37;;;;;;;;;;;;;;;4.70;98.53;96585.47;5064922;28;19959;-69
2023/12/28 05:46:03;;;;;;;;;;;;;;;4.77;98.34;96582.00;5065347;28;20027;-81
2023/12/28 05:48:29;;;;;;;;;;;;;;;4.83;100.00;96601.25;5065033;28;19955;-81
2023/12/28 05:50:57;;;;;;;;;;;;;;;4.85;100.00;96600.09;5065695;28;20029;-81
2023/12/28 05:53:27;;;;;;;;;;;;;;;4.84;100.00;96595.06;5064996;28;19956;-81
2023/12/28 05:55:53;;;;;;;;;;;;;;;4.84;100.00;96575.09;5064978;28;19964;-81
2023/12/28 05:58:19;;;;;;;;;;;;;;;4.85;100.00;96578.50;5065226;28;20014;-81
2023/12/28 06:00:47;;;;;;;;;;;;;;;4.87;100.00;96597.31;5064810;28;20024;-76
2023/12/28 06:03:14;;;;;;;;;;;;;;;4.91;100.00;96602.97;5064683;28;19975;-71
2023/12/28 06:05:39;;;;;;;;;;;;;;;4.91;100.00;96606.34;5065108;28;20130;-73
2023/12/28 06:08:05;;;;;;;;;;;;;;;4.91;100.00;96584.78;5065004;28;20014;-73
2023/12/28 06:10:31;;;;;;;;;;;;;;;4.89;100.00;96603.13;5064532;28;19954;-74
2023/12/28 06:12:57;;;;;;;;;;;;;;;4.89;100.00;96613.53;5064991;28;20003;-74
2023/12/28 06:15:23;;;;;;;;;;;;;;;4.87;100.00;96611.13;5064807;28;20114;-73
2023/12/28 06:17:49;;;;;;;;;;;;;;;4.85;100.00;96614.88;5064856;28;19953;-73
2023/12/28 06:20:15;;;;;;;;;;;;;;;4.83;100.00;96596.88;5064497;28;19961;-71
2023/12/28 06:22:41;;;;;;;;;;;;;;;4.88;100.00;96622.31;5064423;28;19960;-73
2023/12/28 06:25:07;;;;;;;;;;;;;;;4.86;100.00;96638.09;5064488;28;19994;-73
2023/12/28 06:27:33;;;;;;;;;;;;;;;4.89;100.00;96631.72;5064467;28;19952;-74
2023/12/28 06:29:59;;;;;;;;;;;;;;;4.91;100.00;96629.75;5064522;28;19954;-74
2023/12/28 06:32:25;;;;;;;;;;;;;;;4.93;100.00;96629.56;5064515;28;19951;-73
2023/12/28 06:34:51;;;;;;;;;;;;;;;4.95;100.00;96640.59;5064488;28;20269;-73
2023/12/28 06:37:17;;;;;;;;;;;;;;;4.95;100.00;96648.41;5064546;28;20025;-83
2023/12/28 06:39:43;;;;;;;;;;;;;;;4.96;100.00;96643.03;5064541;28;20136;-69
2023/12/28 06:42:09;;;;;;;;;;;;;;;5.04;100.00;96644.72;5064424;28;19966;-82
2023/12/28 06:44:34;;;;;;;;;;;;;;;5.21;100.00;96645.41;5064055;28;19983;-84
2023/12/28 06:47:00;;;;;;;;;;;;;;;5.41;100.00;96641.25;5064092;28;19950;-83
2023/12/28 06:49:26;;;;;;;;;;;;;;;5.55;100.00;96634.44;5064465;28;19965;-83
2023/12/28 06:51:52;;;;;;;;;;;;;;;5.68;100.00;96623.38;5064089;28;19949;-83
2023/12/28 06:54:18;;;;;;;;;;;;;;;5.88;100.00;96619.22;5063821;28;19963;-83
2023/12/28 06:56:44;;;;;;;;;;;;;;;6.05;100.00;96627.63;5064141;28;19953;-73
2023/12/28 06:59:11;;;;;;;;;;;;;;;6.15;100.00;96616.88;5064188;28;19966;-76
2023/12/28 07:01:38;;;;;;;;;;;;;;;6.19;100.00;96633.75;5046073;28;19962;-76
2023/12/28 07:04:04;;;;;;;;;;;;;;;6.25;100.00;96617.38;5063874;28;20258;-76
2023/12/28 07:06:30;;;;;;;;;;;;;;;6.28;100.00;96622.25;5064233;28;20006;-76
2023/12/28 07:08:55;;;;;;;;;;;;;;;6.28;100.00;96630.06;5064106;28;20208;-76
2023/12/28 07:11:23;;;;;;;;;;;;;;;6.29;100.00;96621.25;5063182;28;20479;-76
2023/12/28 07:13:49;;;;;;;;;;;;;;;6.37;100.00;96617.72;5066518;28;20035;-68
2023/12/28 07:16:18;;;;;;;;;;;;;;;6.46;100.00;96621.00;5067888;28;20180;-70
2023/12/28 07:18:43;;;;;;;;;;;;;;;6.47;100.00;96635.63;5068192;28;19960;-77
2023/12/28 07:21:09;;;;;;;;;;;;;;;6.46;100.00;96639.22;5068312;28;20249;-77
2023/12/28 07:23:35;;;;;;;;;;;;;;;6.46;100.00;96628.81;5067464;28;19972;-77
2023/12/28 07:26:01;;;;;;;;;;;;;;;6.46;100.00;96621.00;5067861;28;20154;-76
2023/12/28 07:28:27;;;;;;;;;;;;;;;6.46;100.00;96634.81;5068085;28;19982;-76
2023/12/28 07:30:54;;;;;;;;;;;;;;;6.43;100.00;96635.19;5067813;28;20237;-76
2023/12/28 07:33:20;;;;;;;;;;;;;;;6.40;100.00;96637.38;5067359;28;19956;-83
2023/12/28 07:35:46;;;;;;;;;;;;;;;6.38;100.00;96632.34;5067853;28;19967;-73
2023/12/28 07:38:12;;;;;;;;;;;;;;;6.38;100.00;96621.91;5068403;28;19963;-74
2023/12/28 07:40:38;;;;;;;;;;;;;;;6.40;100.00;96614.72;5067304;28;19946;-74
2023/12/28 07:43:04;;;;;;;;;;;;;;;6.41;100.00;96641.59;5050042;28;19976;-73
2023/12/28 07:45:30;;;;;;;;;;;;;;;6.40;100.00;96621.72;5067967;28;19958;-74
2023/12/28 07:47:56;;;;;;;;;;;;;;;6.41;100.00;96625.97;5067355;28;19964;-73
2023/12/28 07:50:22;;;;;;;;;;;;;;;6.42;100.00;96648.41;5067274;28;19972;-74
2023/12/28 07:52:48;;;;;;;;;;;;;;;6.43;100.00;96642.22;5067311;28;20024;-83
2023/12/28 07:55:14;;;;;;;;;;;;;;;6.43;100.00;96653.44;5067316;28;19950;-71
2023/12/28 07:57:40;;;;;;;;;;;;;;;6.43;100.00;96657.84;5067317;28;19955;-71
2023/12/28 08:00:07;;;;;;;;;;;;;;;6.43;100.00;96674.28;5067595;28;19961;-71
2023/12/28 08:02:33;;;;;;;;;;;;;;;6.43;100.00;96671.66;5066775;28;19996;-71
2023/12/28 08:04:59;;;;;;;;;;;;;;;6.43;100.00;96663.06;5067329;28;20147;-71
2023/12/28 08:07:25;;;;;;;;;;;;;;;6.44;100.00;96670.66;5067322;28;19955;-71
2023/12/28 08:09:50;;;;;;;;;;;;;;;6.48;100.00;96665.91;5067203;28;20247;-74
2023/12/28 08:12:17;;;;;;;;;;;;;;;6.53;100.00;96660.94;5066855;28;20120;-81
2023/12/28 08:14:43;;;;;;;;;;;;;;;6.62;100.00;96659.81;5067199;28;20141;-73
2023/12/28 08:17:09;;;;;;;;;;;;;;;6.68;100.00;96659.06;5066767;28;19960;-74
2023/12/28 08:19:35;;;;;;;;;;;;;;;6.74;100.00;96664.50;5065951;28;19988;-73
2023/12/28 08:22:02;;;;;;;;;;;;;;;6.80;100.00;96668.97;5066737;28;19957;-73
2023/12/28 08:24:28;;;;;;;;;;;;;;;6.84;100.00;96657.97;5065863;28;19950;-74
2023/12/28 08:26:54;;;;;;;;;;;;;;;6.95;100.00;96664.50;5066660;28;19954;-73
2023/12/28 08:29:20;;;;;;;;;;;;;;;6.98;100.00;96671.13;5066951;28;19958;-72
2023/12/28 08:31:46;;;;;;;;;;;;;;;7.00;100.00;96674.38;5066371;28;19965;-83
2023/12/28 08:34:11;;;;;;;;;;;;;;;7.02;100.00;96669.75;5067052;28;19950;-83
2023/12/28 08:36:37;;;;;;;;;;;;;;;7.00;100.00;96688.19;5066784;28;19964;-83
2023/12/28 08:39:04;;;;;;;;;;;;;;;7.01;100.00;96687.19;5065801;28;20181;-82
2023/12/28 08:41:30;;;;;;;;;;;;;;;7.03;100.00;96710.47;5066784;28;20079;-83
2023/12/28 08:43:55;;;;;;;;;;;;;;;7.04;100.00;96712.91;5066200;28;20006;-83
2023/12/28 08:46:22;;;;;;;;;;;;;;;7.05;100.00;96698.84;5066231;28;19975;-72
2023/12/28 08:48:48;;;;;;;;;;;;;;;7.10;100.00;96703.53;5066354;28;19963;-68
2023/12/28 08:51:14;;;;;;;;;;;;;;;7.09;100.00;96722.75;5066226;28;19953;-73
2023/12/28 08:53:40;;;;;;;;;;;;;;;7.09;100.00;96728.78;5066146;28;19962;-74
2023/12/28 08:56:26;;;;;;;;;;;;;;;7.11;100.00;96723.38;5066525;28;19952;-73
2023/12/28 08:58:54;;;;;;;;;;;;;;;7.14;100.00;96703.94;5066003;28;20046;-73
2023/12/28 09:01:25;;;;;;;;;;;;;;;7.17;100.00;96700.97;5065839;28;20244;-73
2023/12/28 09:03:51;;;;;;;;;;;;;;;7.20;100.00;96698.78;5066183;28;20151;-73
2023/12/28 09:06:17;;;;;;;;;;;;;;;7.22;100.00;96704.59;5065822;28;19966;-73
2023/12/28 09:08:44;;;;;;;;;;;;;;;7.25;100.00;96685.16;5065761;28;19967;-79
2023/12/28 09:11:11;;;;;;;;;;;;;;;7.27;100.00;96688.41;5065709;28;19960;-79
2023/12/28 09:13:37;;;;;;;;;;;;;;;7.28;100.00;96700.44;5066170;28;19957;-80
2023/12/28 09:16:03;;;;;;;;;;;;;;;7.30;100.00;96701.03;5065713;28;19967;-80
2023/12/28 09:18:29;;;;;;;;;;;;;;;7.32;100.00;96704.28;5065869;28;19955;-80
2023/12/28 09:20:55;;;;;;;;;;;;;;;7.34;100.00;96707.50;5065897;28;19965;-80
2023/12/28 09:23:21;;;;;;;;;;;;;;;7.35;100.00;96709.13;5065685;28;20268;-74
2023/12/28 09:25:47;;;;;;;;;;;;;;;7.38;100.00;96727.00;5065874;28;20223;-73
2023/12/28 09:28:13;;;;;;;;;;;;;;;7.42;100.00;96722.22;5065754;28;19960;-73
2023/12/28 09:30:39;;;;;;;;;;;;;;;7.43;100.00;96719.41;5065694;28;19959;-73
2023/12/28 09:33:05;;;;;;;;;;;;;;;7.46;100.00;96734.66;5065678;28;20231;-74
2023/12/28 09:35:31;;;;;;;;;;;;;;;7.48;100.00;96739.72;5065893;28;19943;-73
2023/12/28 09:37:57;;;;;;;;;;;;;;;7.48;100.00;96737.09;5065266;28;19954;-73
2023/12/28 09:40:24;;;;;;;;;;;;;;;7.49;100.00;96743.91;5065219;28;19949;-73
2023/12/28 09:43:08;;;;;;;;;;;;;;;7.50;100.00;96746.34;5065580;28;19964;-76
2023/12/28 09:45:34;;;;;;;;;;;;;;;7.49;100.00;96757.75;5065222;28;20235;-73
2023/12/28 09:48:00;;;;;;;;;;;;;;;7.51;100.00;96757.59;5065237;28;19999;-73
2023/12/28 09:50:26;;;;;;;;;;;;;;;7.55;100.00;96721.47;5065271;28;19996;-73
2023/12/28 09:52:53;;;;;;;;;;;;;;;7.62;100.00;96736.19;5065238;28;19957;-73
2023/12/28 09:55:19;;;;;;;;;;;;;;;7.70;100.00;96724.78;5064859;28;19958;-74
2023/12/28 09:57:45;;;;;;;;;;;;;;;7.80;100.00;96727.03;5065230;28;20115;-73
2023/12/28 10:00:12;;;;;;;;;;;;;;;7.88;100.00;96721.66;5065196;28;20221;-73
2023/12/28 10:02:39;;;;;;;;;;;;;;;7.96;100.00;96721.50;5064902;28;19963;-70
2023/12/28 10:05:06;;;;;;;;;;;;;;;8.05;100.00;96719.53;5065273;28;19955;-71
2023/12/28 10:07:31;;;;;;;;;;;;;;;8.14;100.00;96711.31;5064431;28;20277;-71
2023/12/28 10:09:57;;;;;;;;;;;;;;;8.24;100.00;96724.00;5064722;28;19957;-71
2023/12/28 10:12:26;;;;;;;;;;;;;;;8.33;100.00;96714.19;5065053;28;19963;-71
2023/12/28 10:14:52;;;;;;;;;;;;;;;8.37;100.00;96707.56;5064733;28;19954;-71
2023/12/28 10:17:17;;;;;;;;;;;;;;;8.43;100.00;96708.63;5064881;28;19954;-71
2023/12/28 10:19:47;;;;;;;;;;;;;;;8.47;100.00;96705.41;5064008;28;19960;-82
2023/12/28 10:22:13;;;;;;;;;;;;;;;8.51;100.00;96705.84;5064878;28;19972;-80
2023/12/28 10:24:45;;;;;;;;;;;;;;;8.55;100.00;96709.66;5064626;28;19961;-80
2023/12/28 10:27:13;;;;;;;;;;;;;;;8.60;100.00;96704.63;5064185;28;19943;-79
2023/12/28 10:29:39;;;;;;;;;;;;;;;8.65;100.00;96711.88;5064792;28;19957;-80
2023/12/28 10:32:05;;;;;;;;;;;;;;;8.70;100.00;96714.72;5064635;28;19961;-80
2023/12/28 10:34:31;;;;;;;;;;;;;;;8.72;100.00;96699.63;5064196;28;19956;-80
2023/12/28 10:36:59;;;;;;;;;;;;;;;8.76;100.00;96687.78;5064362;28;20023;-72
2023/12/28 10:39:25;;;;;;;;;;;;;;;8.81;100.00;96689.78;5064539;28;19954;-71
2023/12/28 10:41:55;;;;;;;;;;;;;;;8.85;100.00;96693.59;5064260;28;19964;-71
2023/12/28 10:44:23;;;;;;;;;;;;;;;8.90;100.00;96681.53;5064246;28;19969;-72
2023/12/28 10:46:51;;;;;;;;;;;;;;;8.95;100.00;96675.72;5063858;28;20151;-71
2023/12/28 10:49:17;;;;;;;;;;;;;;;8.98;100.00;96672.66;5063997;28;19962;-71
2023/12/28 10:51:43;;;;;;;;;;;;;;;9.02;100.00;96681.72;5064446;28;19966;-71
2023/12/28 10:54:28;;;;;;;;;;;;;;;9.05;100.00;96670.03;5064237;28;19954;-71
2023/12/28 10:57:05;;;;;;;;;;;;;;;9.08;100.00;96665.22;5063962;28;19955;-69
2023/12/28 11:00:07;;;;;;;;;;;;;;;9.08;100.00;96670.47;5063954;28;19976;-71
2023/12/28 11:02:39;;;;;;;;;;;;;;;9.14;100.00;96671.47;4983225;28;19966;-71
2023/12/28 11:05:07;;;;;;;;;;;;;;;9.19;100.00;96670.84;5051472;28;20161;-72
2023/12/28 11:07:33;;;;;;;;;;;;;;;9.24;100.00;96663.19;5063538;28;19951;-72
2023/12/28 11:10:00;;;;;;;;;;;;;;;9.25;100.00;96663.00;5063665;28;19951;-71
2023/12/28 11:12:26;;;;;;;;;;;;;;;9.27;100.00;96662.78;5063958;28;20140;-72
2023/12/28 11:14:53;;;;;;;;;;;;;;;9.29;100.00;96663.41;5063616;28;19952;-73
2023/12/28 11:17:20;;;;;;;;;;;;;;;9.30;100.00;96655.34;5063763;28;19959;-77
2023/12/28 11:19:46;;;;;;;;;;;;;;;9.33;100.00;96647.06;5063782;28;19966;-77
2023/12/28 11:22:13;;;;;;;;;;;;;;;9.37;100.00;96655.31;5063962;28;20244;-77
2023/12/28 11:24:39;;;;;;;;;;;;;;;9.40;100.00;96646.25;5063973;28;19966;-77
2023/12/28 11:27:06;;;;;;;;;;;;;;;9.42;100.00;96654.72;5063862;28;19952;-77
2023/12/28 11:29:32;;;;;;;;;;;;;;;9.44;100.00;96644.84;5063839;28;19957;-77
2023/12/28 11:31:58;;;;;;;;;;;;;;;9.44;100.00;96652.69;5063591;28;20340;-80
2023/12/28 11:34:25;;;;;;;;;;;;;;;9.42;100.00;96646.84;5064041;28;19958;-77
2023/12/28 11:36:52;;;;;;;;;;;;;;;9.41;100.00;96646.06;5063901;28;20219;-72
2023/12/28 11:39:20;;;;;;;;;;;;;;;9.41;100.00;96653.91;5063408;28;19938;-71
2023/12/28 11:41:46;;;;;;;;;;;;;;;9.40;100.00;96659.34;5063930;28;19954;-71
2023/12/28 11:44:12;;;;;;;;;;;;;;;9.41;100.00;96660.94;5063294;28;19962;-72
2023/12/28 11:46:38;;;;;;;;;;;;;;;9.41;100.00;96656.53;5063546;28;19962;-71
2023/12/28 11:49:07;;;;;;;;;;;;;;;9.42;100.00;96657.31;5063586;28;19957;-71
2023/12/28 11:51:35;;;;;;;;;;;;;;;9.44;100.00;96658.72;5063590;28;19962;-69
2023/12/28 11:54:01;;;;;;;;;;;;;;;9.44;100.00;96658.72;5063542;28;19950;-72
2023/12/28 11:56:27;;;;;;;;;;;;;;;9.47;100.00;96670.59;5063745;28;20121;-72
2023/12/28 11:58:53;;;;;;;;;;;;;;;9.48;100.00;96652.06;5063219;28;19958;-71
2023/12/28 12:01:19;;;;;;;;;;;;;;;9.49;100.00;96653.69;5066988;28;19956;-71
2023/12/28 12:03:44;;;;;;;;;;;;;;;9.50;100.00;96655.28;5067318;28;19962;-71
2023/12/28 12:06:10;;;;;;;;;;;;;;;9.51;100.00;96645.63;5067278;28;20021;-72
2023/12/28 12:08:36;;;;;;;;;;;;;;;9.51;100.00;96637.75;5066751;28;19979;-73
2023/12/28 12:11:04;;;;;;;;;;;;;;;9.51;100.00;96641.22;5066893;28;19979;-72
2023/12/28 12:13:31;;;;;;;;;;;;;;;9.53;100.00;96636.56;5067180;28;19962;-80
2023/12/28 12:15:57;;;;;;;;;;;;;;;9.51;100.00;96628.13;5066826;28;19954;-80
2023/12/28 12:18:23;;;;;;;;;;;;;;;9.52;100.00;96627.09;5066848;28;20324;-80
2023/12/28 12:20:49;;;;;;;;;;;;;;;9.52;100.00;96626.28;5066835;28;20120;-80
2023/12/28 12:23:16;;;;;;;;;;;;;;;9.50;100.00;96633.53;5066757;28;19963;-80
2023/12/28 12:25:42;;;;;;;;;;;;;;;9.49;100.00;96627.50;5067380;28;19961;-81
2023/12/28 12:28:08;;;;;;;;;;;;;;;9.48;100.00;96623.28;5065765;28;19969;-80
2023/12/28 12:30:34;;;;;;;;;;;;;;;9.48;100.00;96622.47;5048238;28;20249;-73
2023/12/28 12:33:00;;;;;;;;;;;;;;;9.48;100.00;96625.09;5066892;28;19980;-73
2023/12/28 12:35:27;;;;;;;;;;;;;;;9.46;100.00;96621.88;5066800;28;20255;-74
2023/12/28 12:37:54;;;;;;;;;;;;;;;9.44;100.00;96622.06;5066570;28;19957;-73
2023/12/28 12:40:20;;;;;;;;;;;;;;;9.43;100.00;96632.75;5066786;28;19959;-73
2023/12/28 12:42:55;;;;;;;;;;;;;;;9.43;100.00;96633.56;5066364;28;19964;-73